West Lakeland, Minnesota
Current Conditions -  °F | °C
As of 12:31 AM on Monday 24 Nov 2014 (Local Time) from K21D Reporting Station
Haze Haze  
Wind Chill: 23°   Ceiling: 700
Heat Index: 32°   Visibility: 5mi
Dew Point: 32°   Wind: 13mph
Humidity: 100%   Direction: 310°NW
Pressure: 29.3"   Gusts: 17mph
Location:  45.0713°N, 92.8375°W
Report Text: K21D 240631Z AUTO 31011G15KT 5SM BR OVC007 00/00 A2930 RMK AO2
Loading
Personal Weather Stations






























Interactive Weather Map New forecast layout! Learn more

10-Day Weather Forecast

Advertisements
Track Severe Weather on mobile